createdAt,value
2019-05-03T05:36:45.924Z,11.80
2019-05-03T05:37:46.013Z,11.74
2019-05-03T05:38:46.102Z,11.83
2019-05-03T05:39:46.198Z,11.89
2019-05-03T05:40:46.289Z,11.97
2019-05-03T05:41:46.378Z,11.99
2019-05-03T05:42:46.470Z,12.06
2019-05-03T05:43:46.559Z,11.96
2019-05-03T05:44:46.648Z,12.02
2019-05-03T05:45:46.739Z,12.09
2019-05-03T05:46:46.833Z,12.15
2019-05-03T05:47:46.926Z,12.29
2019-05-03T05:48:47.017Z,12.30
2019-05-03T05:49:47.107Z,12.38
2019-05-03T05:50:47.201Z,12.46
2019-05-03T05:51:47.294Z,12.39
2019-05-03T05:52:47.385Z,12.37
2019-05-03T05:53:47.480Z,12.42
2019-05-03T05:54:47.570Z,11.97
2019-05-03T05:55:47.663Z,11.82
2019-05-03T05:56:47.759Z,11.54
2019-05-03T05:57:47.848Z,11.35
2019-05-03T05:58:47.941Z,11.38
2019-05-03T05:59:48.033Z,11.27
2019-05-03T06:00:48.125Z,11.25
2019-05-03T06:01:48.216Z,10.80
2019-05-03T06:02:48.311Z,10.68
2019-05-03T06:03:48.399Z,10.62
2019-05-03T06:04:48.492Z,10.62
2019-05-03T06:05:48.585Z,10.77
2019-05-03T06:06:48.683Z,10.66
2019-05-03T06:07:48.771Z,10.46
2019-05-03T06:08:48.875Z,10.44
2019-05-03T06:09:48.967Z,10.40
2019-05-03T06:10:49.064Z,10.46
2019-05-03T06:11:49.152Z,10.58
2019-05-03T06:12:49.242Z,10.55
2019-05-03T06:13:49.332Z,10.59
2019-05-03T06:14:49.428Z,10.22
2019-05-03T06:15:49.517Z,10.03
2019-05-03T06:16:49.610Z,10.03
2019-05-03T06:17:49.699Z,9.85
2019-05-03T06:18:49.790Z,9.66
2019-05-03T06:19:49.881Z,9.61
2019-05-03T06:20:49.973Z,9.48
2019-05-03T06:21:50.072Z,9.43
2019-05-03T06:22:50.157Z,9.40
2019-05-03T06:23:50.248Z,9.53
2019-05-03T06:24:50.341Z,9.46
2019-05-03T06:25:50.430Z,9.38
2019-05-03T06:26:50.524Z,9.35
2019-05-03T06:27:50.612Z,9.13
2019-05-03T06:28:50.706Z,9.06
2019-05-03T06:29:50.804Z,9.13
2019-05-03T06:30:50.887Z,9.23
2019-05-03T06:31:50.976Z,9.31
2019-05-03T06:32:51.069Z,9.34
2019-05-03T06:33:52.557Z,9.38
2019-05-03T06:34:51.253Z,9.35
2019-05-03T06:35:51.340Z,9.52
2019-05-03T06:36:51.646Z,9.57
2019-05-03T06:37:51.521Z,9.68
2019-05-03T06:38:51.612Z,9.86
2019-05-03T06:39:51.703Z,9.88
2019-05-03T06:40:51.794Z,9.91
2019-05-03T06:41:51.885Z,9.91
2019-05-03T06:42:54.924Z,9.99
2019-05-03T06:43:52.071Z,10.01
2019-05-03T06:44:54.113Z,10.03
2019-05-03T06:45:52.250Z,10.14
2019-05-03T06:46:52.344Z,10.19
2019-05-03T06:47:52.433Z,10.30
2019-05-03T06:48:54.235Z,10.30
2019-05-03T06:49:52.617Z,10.36
2019-05-03T06:50:52.710Z,10.37
2019-05-03T06:51:54.584Z,10.30
2019-05-03T06:52:54.690Z,10.01
2019-05-03T06:53:54.682Z,10.03
2019-05-03T06:54:55.226Z,10.03
2019-05-03T06:55:55.290Z,10.12
2019-05-03T06:56:55.362Z,10.19
2019-05-03T06:57:54.558Z,9.97
2019-05-03T06:58:54.859Z,9.70
2019-05-03T06:59:55.028Z,9.75
2019-05-03T07:00:55.326Z,10.00
2019-05-03T07:01:55.233Z,10.01
2019-05-03T07:02:54.591Z,10.04
2019-05-03T07:03:54.874Z,10.26
2019-05-03T07:04:56.102Z,10.25
2019-05-03T07:05:54.907Z,10.36
2019-05-03T07:06:55.135Z,10.14
2019-05-03T07:07:54.757Z,10.09
2019-05-03T07:08:54.967Z,10.30
2019-05-03T07:09:54.709Z,10.43
2019-05-03T07:10:55.004Z,10.63
2019-05-03T07:11:55.514Z,10.66
2019-05-03T07:12:54.810Z,10.80
2019-05-03T07:13:55.047Z,10.99
2019-05-03T07:14:54.921Z,11.07
2019-05-03T07:15:56.030Z,11.27
2019-05-03T07:16:55.371Z,11.27
2019-05-03T07:17:55.667Z,11.19
2019-05-03T07:18:58.097Z,11.31
2019-05-03T07:19:55.393Z,11.31
2019-05-03T07:20:57.044Z,11.10
2019-05-03T07:21:55.577Z,11.03
2019-05-03T07:22:56.007Z,10.83
2019-05-03T07:23:55.762Z,10.80
2019-05-03T07:24:55.854Z,10.95
2019-05-03T07:25:55.946Z,11.10
2019-05-03T07:26:58.933Z,11.24
2019-05-03T07:27:56.135Z,11.06
2019-05-03T07:28:56.217Z,10.86
2019-05-03T07:29:56.309Z,10.78
2019-05-03T07:30:56.407Z,10.76
2019-05-03T07:31:56.501Z,10.77
2019-05-03T07:32:56.593Z,10.92
2019-05-03T07:33:56.690Z,10.88
2019-05-03T07:34:56.783Z,10.73
2019-05-03T07:35:56.876Z,10.43
2019-05-03T07:36:56.970Z,10.44
2019-05-03T07:37:57.059Z,10.66
2019-05-03T07:38:57.150Z,10.76
2019-05-03T07:39:57.243Z,10.94
2019-05-03T07:40:57.338Z,11.09
2019-05-03T07:41:57.431Z,11.21
2019-05-03T07:42:57.519Z,11.27
2019-05-03T07:43:57.610Z,11.35
2019-05-03T07:44:57.706Z,11.54
2019-05-03T07:45:57.796Z,11.44
2019-05-03T07:46:57.888Z,11.38
2019-05-03T07:47:57.990Z,11.29
2019-05-03T07:48:58.072Z,11.29
2019-05-03T07:49:58.189Z,11.44
2019-05-03T07:50:58.261Z,11.49
2019-05-03T07:51:58.353Z,11.62
2019-05-03T07:52:58.443Z,11.78
2019-05-03T07:53:58.538Z,11.97
2019-05-03T07:54:58.638Z,12.02
2019-05-03T07:55:58.719Z,12.12
2019-05-03T07:56:58.810Z,12.20
2019-05-03T07:57:58.897Z,12.37
2019-05-03T07:59:03.002Z,12.30
2019-05-03T07:59:59.141Z,12.11
2019-05-03T08:01:06.222Z,11.94
2019-05-03T08:01:59.265Z,11.61
2019-05-03T08:02:59.360Z,11.31
2019-05-03T08:03:59.450Z,11.36
2019-05-03T08:04:59.541Z,11.52
2019-05-03T08:05:59.637Z,11.50
2019-05-03T08:06:59.726Z,11.25
2019-05-03T08:07:59.820Z,11.07
2019-05-03T08:08:59.909Z,11.10
2019-05-03T08:10:00.003Z,11.28
2019-05-03T08:11:00.094Z,11.46
2019-05-03T08:12:00.191Z,11.07
2019-05-03T08:13:00.280Z,11.24
2019-05-03T08:14:00.371Z,11.20
2019-05-03T08:15:00.463Z,11.32
2019-05-03T08:16:00.554Z,11.29
2019-05-03T08:17:00.642Z,11.56
2019-05-03T08:18:00.735Z,11.67
2019-05-03T08:19:00.826Z,11.70
2019-05-03T08:20:00.924Z,11.96
2019-05-03T08:21:01.021Z,11.61
2019-05-03T08:22:01.104Z,11.38
2019-05-03T08:23:01.216Z,11.53
2019-05-03T08:24:01.308Z,11.77
2019-05-03T08:25:01.404Z,11.96
2019-05-03T08:26:01.501Z,12.21
2019-05-03T08:27:01.591Z,12.42
2019-05-03T08:28:01.677Z,12.51
2019-05-03T08:29:13.327Z,12.21
2019-05-03T08:30:01.865Z,12.06
2019-05-03T08:31:01.957Z,12.20
2019-05-03T08:32:02.051Z,12.26
2019-05-03T08:33:02.142Z,12.11
2019-05-03T08:34:02.238Z,12.12
2019-05-03T08:35:02.329Z,12.12
2019-05-03T08:36:04.739Z,12.23
2019-05-03T08:37:02.520Z,12.16
2019-05-03T08:38:02.617Z,12.27
2019-05-03T08:39:02.731Z,12.13
2019-05-03T08:40:02.803Z,11.97
2019-05-03T08:41:02.896Z,11.47
2019-05-03T08:42:04.811Z,11.57
2019-05-03T08:43:05.034Z,11.72
2019-05-03T08:44:05.126Z,11.71
2019-05-03T08:45:04.517Z,11.50
2019-05-03T08:46:04.608Z,11.77
2019-05-03T08:47:05.192Z,12.08
2019-05-03T08:48:05.399Z,12.42
2019-05-03T08:49:05.214Z,11.94
2019-05-03T08:50:05.474Z,12.16
2019-05-03T08:51:04.596Z,12.37
2019-05-03T08:52:05.432Z,12.37
2019-05-03T08:53:05.086Z,12.66
2019-05-03T08:54:04.750Z,12.81
2019-05-03T08:55:05.255Z,12.74
2019-05-03T08:56:05.312Z,12.87
2019-05-03T08:57:06.244Z,12.93
2019-05-03T08:58:05.230Z,13.07
2019-05-03T08:59:04.783Z,13.12
2019-05-03T09:00:05.283Z,13.40
2019-05-03T09:01:05.487Z,13.41
2019-05-03T09:02:14.132Z,13.59
2019-05-03T09:03:05.297Z,13.74
2019-05-03T09:04:05.193Z,13.88
2019-05-03T09:05:05.230Z,13.95
2019-05-03T09:06:05.209Z,14.02
2019-05-03T09:07:05.578Z,14.04
2019-05-03T09:08:05.786Z,14.28
2019-05-03T09:09:05.497Z,14.32
2019-05-03T09:10:05.617Z,14.13
2019-05-03T09:11:12.904Z,13.61
2019-05-03T09:12:05.750Z,13.61
2019-05-03T09:13:06.478Z,13.92
2019-05-03T09:14:05.944Z,13.92
2019-05-03T09:15:06.038Z,14.07
2019-05-03T09:16:06.148Z,13.99
2019-05-03T09:17:06.225Z,13.94
2019-05-03T09:18:06.330Z,13.91
2019-05-03T09:19:06.409Z,14.04
2019-05-03T09:20:06.506Z,14.09
2019-05-03T09:21:06.601Z,13.71
2019-05-03T09:22:06.728Z,13.84
2019-05-03T09:23:06.783Z,13.80
2019-05-03T09:24:06.886Z,13.77
2019-05-03T09:25:06.966Z,13.47
2019-05-03T09:26:07.062Z,13.41
2019-05-03T09:27:07.167Z,13.36
2019-05-03T09:28:07.264Z,12.37
2019-05-03T09:29:07.357Z,12.49
2019-05-03T09:30:07.446Z,12.52
2019-05-03T09:31:07.559Z,12.37
2019-05-03T09:32:07.656Z,12.16
2019-05-03T09:33:09.208Z,12.37
2019-05-03T09:34:08.401Z,12.56
2019-05-03T09:35:07.931Z,12.38
2019-05-03T09:36:08.024Z,12.34
2019-05-03T09:37:08.112Z,12.44
2019-05-03T09:38:08.211Z,12.39
2019-05-03T09:39:08.308Z,12.38
2019-05-03T09:40:08.387Z,12.48
2019-05-03T09:41:08.519Z,12.78
2019-05-03T09:42:08.576Z,12.92
2019-05-03T09:43:08.662Z,13.12
2019-05-03T09:44:08.757Z,13.36
2019-05-03T09:45:08.849Z,13.40
2019-05-03T09:46:08.937Z,13.41
2019-05-03T09:47:09.039Z,13.09
2019-05-03T09:48:09.132Z,12.67
2019-05-03T09:49:13.220Z,12.30
2019-05-03T09:50:09.320Z,12.26
2019-05-03T09:51:09.414Z,12.38
2019-05-03T09:52:09.504Z,12.60
2019-05-03T09:53:09.595Z,12.74
2019-05-03T09:54:09.698Z,12.92
2019-05-03T09:55:09.792Z,12.99
2019-05-03T09:56:09.890Z,12.69
2019-05-03T09:57:09.973Z,12.84
2019-05-03T09:58:10.072Z,12.96
2019-05-03T09:59:10.163Z,12.93
2019-05-03T10:00:10.258Z,12.87
2019-05-03T10:01:10.357Z,12.82
2019-05-03T10:02:10.451Z,12.67
2019-05-03T10:03:10.547Z,12.69
2019-05-03T10:04:10.633Z,12.75
2019-05-03T10:05:10.735Z,13.12
2019-05-03T10:06:10.822Z,12.97
2019-05-03T10:07:10.916Z,13.03
2019-05-03T10:08:11.012Z,13.11
2019-05-03T10:09:11.105Z,13.38
2019-05-03T10:10:11.206Z,13.49
2019-05-03T10:11:11.287Z,13.69
2019-05-03T10:12:11.389Z,13.83
2019-05-03T10:13:15.045Z,14.06
2019-05-03T10:14:11.581Z,14.20
2019-05-03T10:15:11.677Z,14.31
2019-05-03T10:16:11.787Z,14.44
2019-05-03T10:17:11.866Z,14.53
2019-05-03T10:18:11.962Z,14.50
2019-05-03T10:19:14.313Z,14.65
2019-05-03T10:20:12.159Z,14.75
2019-05-03T10:21:14.658Z,14.83
2019-05-03T10:22:12.318Z,15.02
2019-05-03T10:23:12.413Z,15.08
2019-05-03T10:24:12.497Z,15.09
2019-05-03T10:25:12.604Z,15.21
2019-05-03T10:26:14.691Z,15.17
2019-05-03T10:27:12.778Z,15.24
2019-05-03T10:28:12.890Z,15.08
2019-05-03T10:29:15.113Z,15.11
2019-05-03T10:30:14.472Z,15.17
2019-05-03T10:31:13.159Z,15.20
2019-05-03T10:32:15.053Z,15.43
2019-05-03T10:33:15.530Z,15.54
2019-05-03T10:34:15.439Z,15.72
2019-05-03T10:35:15.158Z,15.64
2019-05-03T10:36:15.379Z,15.68
2019-05-03T10:37:15.157Z,15.63
2019-05-03T10:38:15.168Z,15.68
2019-05-03T10:39:15.491Z,15.67
2019-05-03T10:40:14.034Z,15.81
2019-05-03T10:41:14.143Z,15.78
2019-05-03T10:42:14.229Z,15.70
2019-05-03T10:43:14.321Z,15.66
2019-05-03T10:44:15.114Z,15.61
2019-05-03T10:45:15.259Z,15.36
2019-05-03T10:46:15.960Z,15.42
2019-05-03T10:47:14.813Z,15.33
2019-05-03T10:48:15.513Z,15.31
2019-05-03T10:49:15.404Z,15.38
2019-05-03T10:50:15.577Z,15.42
2019-05-03T10:51:15.902Z,15.49
2019-05-03T10:52:15.204Z,15.49
2019-05-03T10:53:15.469Z,15.67
2019-05-03T10:54:15.414Z,15.59
2019-05-03T10:55:15.874Z,14.90
2019-05-03T10:56:22.680Z,14.34
2019-05-03T10:57:15.997Z,13.95
2019-05-03T10:58:16.177Z,13.94
2019-05-03T10:59:15.892Z,13.88
2019-05-03T11:00:41.573Z,13.81
2019-05-03T11:01:16.082Z,13.89
2019-05-03T11:02:16.186Z,13.98
2019-05-03T11:03:16.285Z,14.01
2019-05-03T11:04:16.382Z,14.07
2019-05-03T11:05:16.476Z,13.96
2019-05-03T11:06:16.573Z,13.98
2019-05-03T11:07:16.663Z,14.09
2019-05-03T11:08:16.769Z,14.17
2019-05-03T11:09:16.860Z,13.99
2019-05-03T11:10:16.955Z,13.99
2019-05-03T11:11:17.053Z,14.10
2019-05-03T11:12:17.146Z,14.04
2019-05-03T11:13:17.242Z,14.17
2019-05-03T11:14:17.330Z,14.19
2019-05-03T11:15:17.424Z,14.24
2019-05-03T11:16:17.511Z,14.25
2019-05-03T11:17:17.619Z,14.19
2019-05-03T11:18:17.723Z,14.34
2019-05-03T11:19:17.813Z,14.38
2019-05-03T11:20:28.189Z,14.46
2019-05-03T11:21:27.942Z,14.54
2019-05-03T11:22:18.101Z,14.57
2019-05-03T11:23:18.201Z,14.64
2019-05-03T11:24:18.288Z,14.53
2019-05-03T11:25:18.376Z,14.57
2019-05-03T11:26:19.333Z,14.12
2019-05-03T11:27:18.570Z,13.63
2019-05-03T11:28:19.222Z,13.69
2019-05-03T11:29:18.766Z,13.44
2019-05-03T11:30:19.322Z,13.07
2019-05-03T11:31:18.938Z,13.18
2019-05-03T11:32:19.369Z,13.20
2019-05-03T11:33:19.142Z,13.55
2019-05-03T11:34:22.394Z,13.70
2019-05-03T11:35:19.340Z,13.88
2019-05-03T11:36:19.435Z,14.01
2019-05-03T11:37:19.521Z,14.35
2019-05-03T11:38:19.626Z,14.53
2019-05-03T11:39:19.730Z,14.39
2019-05-03T11:40:19.807Z,14.56
2019-05-03T11:41:30.303Z,14.69
2019-05-03T11:42:20.016Z,14.90
2019-05-03T11:43:20.121Z,14.98
2019-05-03T11:44:20.217Z,15.08
2019-05-03T11:45:20.311Z,15.06
2019-05-03T11:46:20.397Z,15.21
2019-05-03T11:47:20.502Z,15.30
2019-05-03T11:48:20.585Z,15.42
2019-05-03T11:49:20.679Z,15.54
2019-05-03T11:50:20.774Z,15.57
2019-05-03T11:51:20.869Z,15.66
2019-05-03T11:52:20.965Z,15.78
2019-05-03T11:53:21.053Z,15.75
2019-05-03T11:54:21.167Z,15.86
2019-05-03T11:55:21.248Z,15.86
2019-05-03T11:56:22.339Z,16.12
2019-05-03T11:57:21.439Z,16.22
2019-05-03T11:58:21.540Z,16.23
2019-05-03T11:59:21.617Z,16.20
2019-05-03T12:00:21.713Z,16.18
2019-05-03T12:01:21.797Z,16.25
2019-05-03T12:02:21.900Z,16.31
2019-05-03T12:03:22.000Z,16.45
2019-05-03T12:04:22.105Z,16.27
2019-05-03T12:05:24.350Z,16.23
2019-05-03T12:06:22.310Z,16.42
2019-05-03T12:07:36.517Z,16.37
2019-05-03T12:08:22.500Z,16.50
2019-05-03T12:09:22.596Z,16.65
2019-05-03T12:10:37.104Z,16.77
2019-05-03T12:11:24.419Z,16.85
2019-05-03T12:12:24.495Z,16.90
2019-05-03T12:13:24.562Z,16.20
2019-05-03T12:14:24.491Z,15.39
2019-05-03T12:15:23.149Z,14.83
2019-05-03T12:16:34.884Z,14.67
2019-05-03T12:17:28.552Z,14.83
2019-05-03T12:18:25.123Z,15.03
2019-05-03T12:19:30.443Z,14.84
2019-05-03T12:20:26.817Z,15.11
2019-05-03T12:21:26.456Z,14.88
2019-05-03T12:22:26.085Z,14.43
2019-05-03T12:23:25.822Z,14.31
2019-05-03T12:24:26.311Z,14.39
2019-05-03T12:25:26.143Z,14.60
2019-05-03T12:26:27.121Z,14.62
2019-05-03T12:27:24.435Z,14.84
2019-05-03T12:28:25.669Z,14.86
2019-05-03T12:29:24.669Z,14.94
2019-05-03T12:30:27.464Z,15.03
2019-05-03T12:31:36.273Z,15.12
2019-05-03T12:32:25.173Z,15.03
2019-05-03T12:33:25.991Z,15.11
2019-05-03T12:34:25.635Z,15.20
2019-05-03T12:35:25.120Z,15.27
2019-05-03T12:36:25.218Z,15.27
2019-05-03T12:37:25.305Z,15.46
2019-05-03T12:38:25.667Z,15.39
2019-05-03T12:39:29.973Z,15.21
2019-05-03T12:40:25.659Z,15.28
2019-05-03T12:41:25.706Z,15.38
2019-05-03T12:42:25.801Z,15.63
2019-05-03T12:43:25.888Z,15.63
2019-05-03T12:44:26.003Z,15.64
2019-05-03T12:45:26.076Z,15.84
2019-05-03T12:46:26.353Z,16.06
2019-05-03T12:47:26.263Z,15.92
2019-05-03T12:48:26.358Z,16.15
2019-05-03T12:49:26.453Z,16.44
2019-05-03T12:50:26.546Z,16.63
2019-05-03T12:51:26.640Z,16.81
2019-05-03T12:52:27.531Z,16.99
2019-05-03T12:53:26.832Z,16.73
2019-05-03T12:54:26.929Z,16.56
2019-05-03T12:55:27.027Z,16.20
2019-05-03T12:56:32.736Z,15.88
2019-05-03T12:57:27.224Z,15.79
2019-05-03T12:58:27.332Z,15.79
2019-05-03T12:59:27.420Z,15.82
2019-05-03T13:00:27.501Z,15.81
2019-05-03T13:01:40.257Z,15.78
2019-05-03T13:02:27.693Z,15.79
2019-05-03T13:03:27.777Z,15.93
2019-05-03T13:04:27.891Z,15.94
2019-05-03T13:05:27.988Z,15.93
2019-05-03T13:06:28.082Z,15.99
2019-05-03T13:07:28.188Z,15.93
2019-05-03T13:08:28.289Z,15.93
2019-05-03T13:09:28.374Z,15.96
2019-05-03T13:10:28.468Z,16.12
2019-05-03T13:11:28.574Z,16.06
2019-05-03T13:12:28.665Z,16.04
2019-05-03T13:13:28.762Z,15.94
2019-05-03T13:14:28.848Z,16.06
2019-05-03T13:15:28.950Z,15.96
2019-05-03T13:16:29.033Z,16.03
2019-05-03T13:17:29.136Z,16.09
2019-05-03T13:18:29.235Z,16.25
2019-05-03T13:19:29.332Z,16.34
2019-05-03T13:20:29.427Z,16.20
2019-05-03T13:21:29.522Z,16.30
2019-05-03T13:22:29.615Z,15.88
2019-05-03T13:23:29.717Z,15.49
2019-05-03T13:24:29.799Z,14.90
2019-05-03T13:25:29.899Z,14.44
2019-05-03T13:26:29.997Z,13.96
2019-05-03T13:27:30.112Z,14.04
2019-05-03T13:28:30.188Z,14.12
2019-05-03T13:29:30.278Z,14.32
2019-05-03T13:30:30.381Z,14.35
2019-05-03T13:31:30.467Z,14.61
2019-05-03T13:32:30.563Z,14.88
2019-05-03T13:33:30.663Z,15.13
2019-05-03T13:34:30.761Z,15.31
2019-05-03T13:35:30.852Z,15.54
2019-05-03T13:36:30.955Z,15.60
2019-05-03T13:37:31.057Z,15.66
2019-05-03T13:38:31.144Z,15.74
2019-05-03T13:39:31.229Z,15.72
2019-05-03T13:40:31.322Z,15.68
2019-05-03T13:41:31.431Z,15.82
2019-05-03T13:42:31.502Z,15.92
2019-05-03T13:43:31.623Z,15.94
2019-05-03T13:44:31.716Z,15.35
2019-05-03T13:45:31.805Z,14.88
2019-05-03T13:46:31.895Z,15.03
2019-05-03T13:47:32.017Z,15.20
2019-05-03T13:48:42.803Z,15.11
2019-05-03T13:49:32.179Z,15.41
2019-05-03T13:50:32.275Z,14.99
2019-05-03T13:51:32.363Z,15.09
2019-05-03T13:52:34.459Z,15.21
2019-05-03T13:53:34.683Z,15.33
2019-05-03T13:54:34.633Z,15.51
2019-05-03T13:55:32.751Z,15.61
2019-05-03T13:56:35.141Z,15.60
2019-05-03T13:57:35.230Z,15.67
2019-05-03T13:58:33.063Z,15.56
2019-05-03T13:59:33.170Z,15.72
2019-05-03T14:00:34.602Z,15.66
2019-05-03T14:01:33.343Z,15.63
2019-05-03T14:02:35.346Z,15.64
2019-05-03T14:03:35.204Z,15.42
2019-05-03T14:04:42.772Z,15.31
2019-05-03T14:05:35.208Z,15.17
2019-05-03T14:06:36.558Z,15.08
2019-05-03T14:07:35.373Z,15.42
2019-05-03T14:08:35.023Z,15.38
2019-05-03T14:09:34.793Z,15.46
2019-05-03T14:10:36.010Z,15.49
2019-05-03T14:11:35.340Z,15.59
2019-05-03T14:12:35.053Z,15.68
2019-05-03T14:13:35.396Z,15.79
2019-05-03T14:14:34.966Z,15.93
2019-05-03T14:15:34.928Z,16.06
2019-05-03T14:16:34.749Z,16.27
2019-05-03T14:17:34.849Z,16.18
2019-05-03T14:18:35.296Z,15.99
2019-05-03T14:19:35.039Z,15.94
2019-05-03T14:20:35.202Z,15.92
2019-05-03T14:21:35.232Z,16.06
2019-05-03T14:22:35.747Z,15.92
2019-05-03T14:23:35.415Z,15.97
2019-05-03T14:24:35.514Z,15.93
2019-05-03T14:25:35.609Z,16.07
2019-05-03T14:26:35.707Z,16.09
2019-05-03T14:27:35.802Z,15.99
2019-05-03T14:28:35.897Z,16.00
2019-05-03T14:29:35.987Z,15.93
2019-05-03T14:30:36.089Z,15.94
2019-05-03T14:31:36.178Z,16.07
2019-05-03T14:32:36.291Z,15.41
2019-05-03T14:33:36.384Z,15.36
2019-05-03T14:34:36.486Z,15.36
2019-05-03T14:35:36.576Z,15.54
2019-05-03T14:36:36.680Z,15.48
2019-05-03T14:37:37.864Z,15.63
2019-05-03T14:38:36.864Z,15.70
2019-05-03T14:39:36.955Z,15.64
2019-05-03T14:40:37.047Z,15.76
2019-05-03T14:41:37.190Z,15.84
2019-05-03T14:42:37.269Z,15.94
2019-05-03T14:43:37.368Z,15.89
2019-05-03T14:44:37.470Z,15.99
2019-05-03T14:45:37.565Z,16.09
2019-05-03T14:46:37.665Z,16.11
2019-05-03T14:47:37.757Z,16.15
2019-05-03T14:48:37.849Z,16.26
2019-05-03T14:49:37.946Z,16.25
2019-05-03T14:50:38.034Z,16.26
2019-05-03T14:51:38.130Z,16.45
2019-05-03T14:52:38.238Z,16.56
2019-05-03T14:53:38.353Z,16.49
2019-05-03T14:54:38.420Z,16.60
2019-05-03T14:55:38.506Z,16.59
2019-05-03T14:56:38.600Z,16.62
2019-05-03T14:57:38.699Z,16.59
2019-05-03T14:58:38.794Z,16.63
2019-05-03T14:59:38.917Z,16.65
2019-05-03T15:00:39.011Z,16.56
2019-05-03T15:01:39.130Z,16.48
2019-05-03T15:02:43.638Z,16.50
2019-05-03T15:03:39.334Z,16.48
2019-05-03T15:04:39.430Z,16.30
2019-05-03T15:05:39.524Z,15.89
2019-05-03T15:06:39.627Z,15.49
2019-05-03T15:07:39.722Z,15.42
2019-05-03T15:08:39.815Z,15.56
2019-05-03T15:09:39.916Z,15.56
2019-05-03T15:10:40.009Z,15.56
2019-05-03T15:11:40.097Z,15.74
2019-05-03T15:12:40.191Z,15.81
2019-05-03T15:13:40.287Z,15.97
2019-05-03T15:14:40.384Z,16.14
2019-05-03T15:15:40.486Z,16.16
2019-05-03T15:16:40.573Z,16.16
2019-05-03T15:17:40.667Z,16.03
2019-05-03T15:18:40.764Z,16.06
2019-05-03T15:19:40.874Z,15.78
2019-05-03T15:20:41.273Z,15.86
2019-05-03T15:21:41.036Z,15.89
2019-05-03T15:22:41.145Z,16.01
2019-05-03T15:23:41.228Z,16.20
2019-05-03T15:24:41.326Z,16.30
2019-05-03T15:25:41.420Z,16.31
2019-05-03T15:26:41.515Z,16.49
2019-05-03T15:27:41.618Z,16.50
2019-05-03T15:28:41.705Z,16.48
2019-05-03T15:29:41.803Z,16.52
2019-05-03T15:30:41.909Z,16.59
2019-05-03T15:31:42.028Z,16.49
2019-05-03T15:32:54.727Z,16.37
2019-05-03T15:33:42.196Z,16.30
2019-05-03T15:34:44.529Z,16.23
2019-05-03T15:35:44.527Z,16.25
2019-05-03T15:36:42.483Z,16.23
2019-05-03T15:37:42.583Z,15.93
2019-05-03T15:38:49.842Z,15.99
2019-05-03T15:39:45.000Z,15.99
2019-05-03T15:40:42.911Z,15.93
2019-05-03T15:41:44.876Z,15.79
2019-05-03T15:42:45.068Z,15.93
2019-05-03T15:43:45.188Z,15.89
2019-05-03T15:44:45.026Z,15.86
2019-05-03T15:45:45.038Z,15.70
2019-05-03T15:46:45.015Z,15.68
2019-05-03T15:47:43.589Z,15.74
2019-05-03T15:48:45.706Z,15.82
2019-05-03T15:49:44.797Z,15.76
2019-05-03T15:50:44.655Z,15.66
2019-05-03T15:51:44.627Z,15.63
2019-05-03T15:52:44.477Z,15.68
2019-05-03T15:53:44.455Z,15.67
2019-05-03T15:54:44.522Z,15.12
2019-05-03T15:55:44.352Z,15.21
2019-05-03T15:56:44.925Z,15.19
2019-05-03T15:57:44.742Z,15.09
2019-05-03T15:58:46.816Z,15.06
2019-05-03T15:59:44.732Z,14.91
2019-05-03T16:00:44.861Z,14.78
2019-05-03T16:01:44.923Z,15.02
2019-05-03T16:02:45.016Z,15.01
2019-05-03T16:03:45.110Z,15.08
2019-05-03T16:04:45.210Z,15.13
2019-05-03T16:05:45.301Z,15.21
2019-05-03T16:06:45.395Z,15.23
2019-05-03T16:07:45.489Z,15.23
2019-05-03T16:08:45.582Z,15.42
2019-05-03T16:09:45.678Z,15.41
2019-05-03T16:10:45.844Z,15.36
2019-05-03T16:11:45.872Z,15.43
2019-05-03T16:12:45.966Z,15.49
2019-05-03T16:13:46.065Z,15.64
2019-05-03T16:14:46.153Z,15.74
2019-05-03T16:15:46.250Z,15.84
2019-05-03T16:16:46.344Z,15.99
2019-05-03T16:17:46.439Z,15.92
2019-05-03T16:18:46.534Z,16.12
2019-05-03T16:19:47.722Z,16.09
2019-05-03T16:20:46.722Z,15.88
2019-05-03T16:21:46.820Z,15.96
2019-05-03T16:22:46.910Z,15.93
2019-05-03T16:23:47.005Z,15.85
2019-05-03T16:24:47.183Z,15.96
2019-05-03T16:25:47.197Z,15.84
2019-05-03T16:26:47.285Z,15.74
2019-05-03T16:27:47.398Z,15.79
2019-05-03T16:28:47.476Z,15.79
2019-05-03T16:29:47.568Z,15.85
2019-05-03T16:30:47.674Z,15.70
2019-05-03T16:31:47.760Z,15.72
2019-05-03T16:32:47.856Z,15.70
2019-05-03T16:33:47.950Z,15.78
2019-05-03T16:34:48.042Z,15.78
2019-05-03T16:35:48.133Z,15.72
2019-05-03T16:36:48.227Z,15.72
2019-05-03T16:37:48.325Z,15.51
2019-05-03T16:38:48.419Z,15.49
2019-05-03T16:39:48.514Z,15.48
2019-05-03T16:40:48.609Z,15.57
2019-05-03T16:41:48.703Z,15.52
2019-05-03T16:42:48.797Z,15.39
2019-05-03T16:43:48.891Z,15.45
2019-05-03T16:44:48.989Z,15.48
2019-05-03T16:45:49.083Z,15.36
2019-05-03T16:46:49.178Z,15.39
2019-05-03T16:47:49.273Z,15.43
2019-05-03T16:48:49.365Z,15.36
2019-05-03T16:49:49.462Z,15.43
2019-05-03T16:50:49.555Z,15.49
2019-05-03T16:51:49.646Z,15.54
2019-05-03T16:52:49.745Z,15.54
2019-05-03T16:53:49.848Z,15.61
2019-05-03T16:54:49.936Z,15.43
2019-05-03T16:55:50.030Z,15.12
2019-05-03T16:56:50.126Z,15.08
2019-05-03T16:57:50.216Z,15.12
2019-05-03T16:58:50.314Z,15.13
2019-05-03T16:59:50.409Z,15.21
2019-05-03T17:00:50.501Z,15.21
2019-05-03T17:01:50.597Z,15.27
2019-05-03T17:02:50.687Z,15.19
2019-05-03T17:03:50.781Z,15.19
2019-05-03T17:04:50.874Z,15.15
2019-05-03T17:05:50.969Z,15.01
2019-05-03T17:06:51.060Z,14.94
2019-05-03T17:07:51.153Z,14.83
2019-05-03T17:08:51.246Z,14.93
2019-05-03T17:09:51.341Z,14.47
2019-05-03T17:10:51.433Z,14.27
2019-05-03T17:11:51.530Z,14.19
2019-05-03T17:12:51.623Z,14.20
2019-05-03T17:13:51.718Z,14.29
2019-05-03T17:14:51.813Z,14.10
2019-05-03T17:15:51.904Z,13.98
2019-05-03T17:16:52.002Z,14.09
2019-05-03T17:17:52.096Z,14.16
2019-05-03T17:18:52.194Z,14.19
2019-05-03T17:19:52.286Z,14.20
2019-05-03T17:20:52.380Z,14.20
2019-05-03T17:21:52.477Z,14.28
2019-05-03T17:22:52.574Z,14.21
2019-05-03T17:23:52.659Z,13.87
2019-05-03T17:24:52.753Z,13.56
2019-05-03T17:25:52.846Z,13.74
2019-05-03T17:26:52.941Z,13.58
2019-05-03T17:27:54.277Z,13.44
2019-05-03T17:28:55.223Z,13.41
2019-05-03T17:29:55.187Z,13.43
2019-05-03T17:30:55.192Z,13.47
2019-05-03T17:31:55.042Z,13.61
2019-05-03T17:32:55.090Z,13.77
2019-05-03T17:33:56.164Z,13.69
2019-05-03T17:34:54.892Z,13.91
2019-05-03T17:35:54.467Z,13.63
2019-05-03T17:36:54.494Z,13.63
2019-05-03T17:37:54.609Z,13.71
2019-05-03T17:38:55.129Z,13.73
2019-05-03T17:39:54.731Z,13.80
2019-05-03T17:40:54.930Z,13.84
2019-05-03T17:41:54.700Z,13.91
2019-05-03T17:42:54.791Z,13.95
2019-05-03T17:43:54.617Z,13.84
2019-05-03T17:44:54.663Z,13.81
2019-05-03T17:45:55.080Z,13.80
2019-05-03T17:46:54.951Z,13.79
2019-05-03T17:47:54.975Z,13.81
2019-05-03T17:48:55.013Z,13.71
2019-05-03T17:49:55.107Z,13.67
2019-05-03T17:50:55.231Z,13.79
2019-05-03T17:51:55.515Z,13.70
2019-05-03T17:52:55.389Z,13.71
2019-05-03T17:53:55.488Z,13.69
2019-05-03T17:54:55.577Z,13.56
2019-05-03T17:55:55.682Z,13.63
2019-05-03T17:56:55.759Z,13.65
2019-05-03T17:57:55.857Z,13.56
2019-05-03T17:58:55.948Z,13.54
2019-05-03T17:59:56.040Z,13.56
2019-05-03T18:00:56.251Z,13.55
2019-05-03T18:01:56.223Z,13.43
2019-05-03T18:02:56.318Z,13.56
2019-05-03T18:04:05.642Z,13.46
2019-05-03T18:04:56.508Z,13.47
2019-05-03T18:05:56.606Z,13.44
2019-05-03T18:06:56.697Z,13.40
2019-05-03T18:07:56.791Z,13.47
2019-05-03T18:08:56.885Z,13.33
2019-05-03T18:09:56.981Z,13.38
2019-05-03T18:10:57.071Z,13.33
2019-05-03T18:11:57.161Z,13.32
2019-05-03T18:12:57.248Z,13.32
2019-05-03T18:13:57.333Z,13.29
2019-05-03T18:14:57.436Z,13.06
2019-05-03T18:15:57.522Z,13.15
2019-05-03T18:16:57.617Z,12.96
2019-05-03T18:17:57.712Z,12.93
2019-05-03T18:18:57.806Z,12.85
2019-05-03T18:19:57.899Z,12.75
2019-05-03T18:20:57.992Z,12.71
2019-05-03T18:21:58.082Z,12.57
2019-05-03T18:22:58.174Z,12.56
2019-05-03T18:23:58.273Z,12.51
2019-05-03T18:24:58.364Z,12.41
2019-05-03T18:25:58.453Z,12.37
2019-05-03T18:26:58.552Z,12.45
2019-05-03T18:27:58.646Z,12.38
2019-05-03T18:28:58.740Z,12.44
2019-05-03T18:29:58.834Z,12.51
2019-05-03T18:30:58.924Z,12.52